Terminal Aerodrome Forecast
Issued by NWS Oklahoma City, OK

Home | Current Version | Previous Version | Text Only | Print | Product List | Glossary On
Versions: 1 2 3 4 5 6 7 8 9 10 11 12 13 14 15 16 17 18 19 20 21 22 23 24 25 26 27 28 29 30 31 32
000
FTUS44 KOUN 261120
TAFOUN
TAF
KOUN 261120Z 2612/2712 00000KT 1/4SM FG OVC002
     FM261330 16004KT 1SM BR VCSH OVC003
     FM261500 18011KT P6SM BKN250
      TEMPO 2615/2617 BKN020
     FM262200 16010KT P6SM BKN100 PROB30 2622/2703 5SM -TSRA
      BKN020CB
     FM270900 15010KT 5SM BR BKN008=

USA.gov is the U.S. government's official web portal to all federal, state and local government web resources and services.